sensor_id;sensor_type;location;lat;lon;timestamp;P1;durP1;ratioP1;P2;durP2;ratioP2
12367;SDS011;6248;49.812;6.620;2023-02-01T00:01:04;14.37;;;11.47;;
12367;SDS011;6248;49.812;6.620;2023-02-01T00:03:32;18.77;;;12.87;;
12367;SDS011;6248;49.812;6.620;2023-02-01T00:05:59;14.73;;;11.07;;
12367;SDS011;6248;49.812;6.620;2023-02-01T00:08:26;15.40;;;11.90;;
12367;SDS011;6248;49.812;6.620;2023-02-01T00:10:59;16.40;;;10.83;;
12367;SDS011;6248;49.812;6.620;2023-02-01T00:13:27;16.20;;;12.10;;
12367;SDS011;6248;49.812;6.620;2023-02-01T00:15:54;18.00;;;12.83;;
12367;SDS011;6248;49.812;6.620;2023-02-01T00:18:22;17.27;;;12.60;;
12367;SDS011;6248;49.812;6.620;2023-02-01T00:20:49;18.17;;;12.40;;
12367;SDS011;6248;49.812;6.620;2023-02-01T00:23:16;17.97;;;12.67;;
12367;SDS011;6248;49.812;6.620;2023-02-01T00:25:43;19.30;;;13.10;;
12367;SDS011;6248;49.812;6.620;2023-02-01T00:28:12;17.47;;;11.83;;
12367;SDS011;6248;49.812;6.620;2023-02-01T00:30:39;15.80;;;10.47;;
12367;SDS011;6248;49.812;6.620;2023-02-01T00:33:06;16.13;;;11.23;;
12367;SDS011;6248;49.812;6.620;2023-02-01T00:35:33;13.33;;;9.80;;
12367;SDS011;6248;49.812;6.620;2023-02-01T00:38:01;12.50;;;9.50;;
12367;SDS011;6248;49.812;6.620;2023-02-01T00:40:28;15.20;;;9.97;;
12367;SDS011;6248;49.812;6.620;2023-02-01T00:42:55;12.83;;;9.73;;
12367;SDS011;6248;49.812;6.620;2023-02-01T00:45:24;14.87;;;9.10;;
12367;SDS011;6248;49.812;6.620;2023-02-01T00:47:51;13.83;;;9.57;;
12367;SDS011;6248;49.812;6.620;2023-02-01T00:50:18;14.27;;;9.37;;
12367;SDS011;6248;49.812;6.620;2023-02-01T00:52:45;10.50;;;8.30;;
12367;SDS011;6248;49.812;6.620;2023-02-01T00:55:13;12.93;;;8.67;;
12367;SDS011;6248;49.812;6.620;2023-02-01T00:57:40;10.00;;;8.23;;
12367;SDS011;6248;49.812;6.620;2023-02-01T01:00:08;12.23;;;8.83;;
12367;SDS011;6248;49.812;6.620;2023-02-01T01:02:36;11.53;;;8.97;;
12367;SDS011;6248;49.812;6.620;2023-02-01T01:05:03;11.53;;;8.77;;
12367;SDS011;6248;49.812;6.620;2023-02-01T01:07:31;12.27;;;8.80;;
12367;SDS011;6248;49.812;6.620;2023-02-01T01:09:58;15.83;;;9.20;;
12367;SDS011;6248;49.812;6.620;2023-02-01T01:12:25;18.60;;;9.07;;
12367;SDS011;6248;49.812;6.620;2023-02-01T01:14:52;12.67;;;8.43;;
12367;SDS011;6248;49.812;6.620;2023-02-01T01:17:19;15.70;;;8.93;;
12367;SDS011;6248;49.812;6.620;2023-02-01T01:19:48;10.73;;;8.53;;
12367;SDS011;6248;49.812;6.620;2023-02-01T01:22:16;11.73;;;8.97;;
12367;SDS011;6248;49.812;6.620;2023-02-01T01:24:44;11.40;;;8.20;;
12367;SDS011;6248;49.812;6.620;2023-02-01T01:27:11;12.33;;;8.43;;
12367;SDS011;6248;49.812;6.620;2023-02-01T01:29:39;12.23;;;9.23;;
12367;SDS011;6248;49.812;6.620;2023-02-01T01:32:06;12.00;;;8.50;;
12367;SDS011;6248;49.812;6.620;2023-02-01T01:34:33;13.73;;;9.37;;
12367;SDS011;6248;49.812;6.620;2023-02-01T01:37:02;14.70;;;9.27;;
12367;SDS011;6248;49.812;6.620;2023-02-01T01:39:29;11.23;;;8.90;;
12367;SDS011;6248;49.812;6.620;2023-02-01T01:41:56;12.40;;;9.30;;
12367;SDS011;6248;49.812;6.620;2023-02-01T01:47:09;12.60;;;9.47;;
12367;SDS011;6248;49.812;6.620;2023-02-01T01:49:37;13.70;;;9.33;;
12367;SDS011;6248;49.812;6.620;2023-02-01T01:52:05;14.67;;;8.83;;
12367;SDS011;6248;49.812;6.620;2023-02-01T01:54:34;11.93;;;8.73;;
12367;SDS011;6248;49.812;6.620;2023-02-01T01:57:03;13.13;;;8.90;;
12367;SDS011;6248;49.812;6.620;2023-02-01T01:59:31;11.13;;;8.00;;
12367;SDS011;6248;49.812;6.620;2023-02-01T02:01:59;13.00;;;8.93;;
12367;SDS011;6248;49.812;6.620;2023-02-01T02:04:26;12.07;;;8.43;;
12367;SDS011;6248;49.812;6.620;2023-02-01T02:06:54;12.03;;;8.53;;
12367;SDS011;6248;49.812;6.620;2023-02-01T02:09:24;12.47;;;8.27;;
12367;SDS011;6248;49.812;6.620;2023-02-01T02:11:51;11.47;;;8.43;;
12367;SDS011;6248;49.812;6.620;2023-02-01T02:14:19;14.33;;;9.07;;
12367;SDS011;6248;49.812;6.620;2023-02-01T02:16:52;10.73;;;8.43;;
12367;SDS011;6248;49.812;6.620;2023-02-01T02:19:32;14.57;;;8.47;;
12367;SDS011;6248;49.812;6.620;2023-02-01T02:22:12;12.67;;;8.60;;
12367;SDS011;6248;49.812;6.620;2023-02-01T02:24:53;10.67;;;8.20;;
12367;SDS011;6248;49.812;6.620;2023-02-01T02:27:29;10.00;;;8.20;;
12367;SDS011;6248;49.812;6.620;2023-02-01T02:30:17;10.73;;;7.83;;
12367;SDS011;6248;49.812;6.620;2023-02-01T02:35:36;11.27;;;8.63;;
12367;SDS011;6248;49.812;6.620;2023-02-01T02:38:11;11.93;;;7.80;;
12367;SDS011;6248;49.812;6.620;2023-02-01T02:40:42;10.77;;;7.90;;
12367;SDS011;6248;49.812;6.620;2023-02-01T02:43:14;13.50;;;8.60;;
12367;SDS011;6248;49.812;6.620;2023-02-01T02:46:04;11.13;;;7.23;;
12367;SDS011;6248;49.812;6.620;2023-02-01T02:48:50;11.47;;;7.97;;
12367;SDS011;6248;49.812;6.620;2023-02-01T02:51:20;10.40;;;7.30;;
12367;SDS011;6248;49.812;6.620;2023-02-01T02:54:07;14.43;;;7.53;;
12367;SDS011;6248;49.812;6.620;2023-02-01T02:56:54;9.53;;;7.30;;
12367;SDS011;6248;49.812;6.620;2023-02-01T02:59:41;11.50;;;7.30;;
12367;SDS011;6248;49.812;6.620;2023-02-01T03:02:27;10.50;;;7.30;;
12367;SDS011;6248;49.812;6.620;2023-02-01T03:05:12;11.53;;;6.67;;
12367;SDS011;6248;49.812;6.620;2023-02-01T03:10:37;13.43;;;7.00;;
12367;SDS011;6248;49.812;6.620;2023-02-01T03:13:08;13.70;;;6.50;;
12367;SDS011;6248;49.812;6.620;2023-02-01T03:15:36;9.10;;;5.87;;
12367;SDS011;6248;49.812;6.620;2023-02-01T03:18:04;10.80;;;6.63;;
12367;SDS011;6248;49.812;6.620;2023-02-01T03:20:33;9.37;;;5.53;;
12367;SDS011;6248;49.812;6.620;2023-02-01T03:23:01;12.30;;;6.50;;
12367;SDS011;6248;49.812;6.620;2023-02-01T03:25:31;10.97;;;6.63;;
12367;SDS011;6248;49.812;6.620;2023-02-01T03:28:02;13.63;;;6.90;;
12367;SDS011;6248;49.812;6.620;2023-02-01T03:30:31;8.40;;;6.20;;
12367;SDS011;6248;49.812;6.620;2023-02-01T03:33:00;10.10;;;6.73;;
12367;SDS011;6248;49.812;6.620;2023-02-01T03:35:30;12.03;;;6.23;;
12367;SDS011;6248;49.812;6.620;2023-02-01T03:38:01;8.27;;;6.23;;
12367;SDS011;6248;49.812;6.620;2023-02-01T03:40:30;8.90;;;6.20;;
12367;SDS011;6248;49.812;6.620;2023-02-01T03:43:01;12.43;;;5.83;;
12367;SDS011;6248;49.812;6.620;2023-02-01T03:45:31;10.77;;;6.50;;
12367;SDS011;6248;49.812;6.620;2023-02-01T03:47:59;9.70;;;6.70;;
12367;SDS011;6248;49.812;6.620;2023-02-01T03:50:27;9.23;;;6.40;;
12367;SDS011;6248;49.812;6.620;2023-02-01T03:52:56;11.43;;;6.90;;
12367;SDS011;6248;49.812;6.620;2023-02-01T03:55:24;10.77;;;6.63;;
12367;SDS011;6248;49.812;6.620;2023-02-01T03:57:53;11.63;;;7.20;;
12367;SDS011;6248;49.812;6.620;2023-02-01T04:00:24;11.80;;;6.73;;
12367;SDS011;6248;49.812;6.620;2023-02-01T04:02:52;14.60;;;8.03;;
12367;SDS011;6248;49.812;6.620;2023-02-01T04:05:19;12.10;;;6.63;;
12367;SDS011;6248;49.812;6.620;2023-02-01T04:07:47;9.67;;;6.90;;
12367;SDS011;6248;49.812;6.620;2023-02-01T04:10:14;11.57;;;7.20;;
12367;SDS011;6248;49.812;6.620;2023-02-01T04:12:42;10.87;;;6.93;;
12367;SDS011;6248;49.812;6.620;2023-02-01T04:15:09;9.70;;;6.87;;
12367;SDS011;6248;49.812;6.620;2023-02-01T04:17:38;11.07;;;6.70;;
12367;SDS011;6248;49.812;6.620;2023-02-01T04:20:05;11.60;;;6.27;;
12367;SDS011;6248;49.812;6.620;2023-02-01T04:22:34;11.93;;;6.53;;
12367;SDS011;6248;49.812;6.620;2023-02-01T04:25:01;9.73;;;6.90;;
12367;SDS011;6248;49.812;6.620;2023-02-01T04:27:30;8.63;;;6.13;;
12367;SDS011;6248;49.812;6.620;2023-02-01T04:29:57;11.47;;;6.73;;
12367;SDS011;6248;49.812;6.620;2023-02-01T04:32:25;9.60;;;6.23;;
12367;SDS011;6248;49.812;6.620;2023-02-01T04:34:53;9.87;;;6.07;;
12367;SDS011;6248;49.812;6.620;2023-02-01T04:37:20;12.77;;;6.20;;
12367;SDS011;6248;49.812;6.620;2023-02-01T04:39:48;12.17;;;6.00;;
12367;SDS011;6248;49.812;6.620;2023-02-01T04:42:15;12.93;;;5.50;;
12367;SDS011;6248;49.812;6.620;2023-02-01T04:44:42;14.30;;;6.33;;
12367;SDS011;6248;49.812;6.620;2023-02-01T04:47:09;8.77;;;5.57;;
12367;SDS011;6248;49.812;6.620;2023-02-01T04:49:36;11.70;;;5.57;;
12367;SDS011;6248;49.812;6.620;2023-02-01T04:52:05;10.20;;;4.80;;
12367;SDS011;6248;49.812;6.620;2023-02-01T04:54:32;11.37;;;5.00;;
12367;SDS011;6248;49.812;6.620;2023-02-01T04:56:59;13.00;;;5.20;;
12367;SDS011;6248;49.812;6.620;2023-02-01T04:59:27;9.37;;;4.77;;
12367;SDS011;6248;49.812;6.620;2023-02-01T05:01:54;9.83;;;5.13;;
12367;SDS011;6248;49.812;6.620;2023-02-01T05:04:21;9.77;;;4.73;;
12367;SDS011;6248;49.812;6.620;2023-02-01T05:06:48;11.60;;;3.90;;
12367;SDS011;6248;49.812;6.620;2023-02-01T05:09:17;15.50;;;5.60;;
12367;SDS011;6248;49.812;6.620;2023-02-01T05:11:46;10.23;;;4.77;;
12367;SDS011;6248;49.812;6.620;2023-02-01T05:14:30;11.93;;;4.60;;
12367;SDS011;6248;49.812;6.620;2023-02-01T05:16:58;9.50;;;4.30;;
12367;SDS011;6248;49.812;6.620;2023-02-01T05:19:25;8.63;;;3.70;;
12367;SDS011;6248;49.812;6.620;2023-02-01T05:21:52;8.50;;;3.63;;
12367;SDS011;6248;49.812;6.620;2023-02-01T05:24:21;13.83;;;4.13;;
12367;SDS011;6248;49.812;6.620;2023-02-01T05:26:48;13.00;;;4.00;;
12367;SDS011;6248;49.812;6.620;2023-02-01T05:29:16;10.80;;;3.50;;
12367;SDS011;6248;49.812;6.620;2023-02-01T05:31:43;13.63;;;3.50;;
12367;SDS011;6248;49.812;6.620;2023-02-01T05:34:11;11.63;;;3.67;;
12367;SDS011;6248;49.812;6.620;2023-02-01T05:36:38;12.27;;;3.63;;
12367;SDS011;6248;49.812;6.620;2023-02-01T05:39:06;13.00;;;3.67;;
12367;SDS011;6248;49.812;6.620;2023-02-01T05:41:34;10.80;;;3.00;;
12367;SDS011;6248;49.812;6.620;2023-02-01T05:44:02;11.33;;;3.00;;
12367;SDS011;6248;49.812;6.620;2023-02-01T05:46:29;9.87;;;3.60;;
12367;SDS011;6248;49.812;6.620;2023-02-01T05:48:56;13.00;;;3.50;;
12367;SDS011;6248;49.812;6.620;2023-02-01T05:51:23;11.77;;;3.40;;
12367;SDS011;6248;49.812;6.620;2023-02-01T05:53:50;11.53;;;3.70;;
12367;SDS011;6248;49.812;6.620;2023-02-01T05:56:17;10.53;;;3.10;;
12367;SDS011;6248;49.812;6.620;2023-02-01T05:58:46;9.80;;;3.30;;
12367;SDS011;6248;49.812;6.620;2023-02-01T06:01:13;10.97;;;3.40;;
12367;SDS011;6248;49.812;6.620;2023-02-01T06:03:40;9.67;;;3.63;;
12367;SDS011;6248;49.812;6.620;2023-02-01T06:06:08;10.13;;;3.10;;
12367;SDS011;6248;49.812;6.620;2023-02-01T06:08:35;11.53;;;3.13;;
12367;SDS011;6248;49.812;6.620;2023-02-01T06:11:05;13.27;;;3.80;;
12367;SDS011;6248;49.812;6.620;2023-02-01T06:13:33;11.27;;;3.23;;
12367;SDS011;6248;49.812;6.620;2023-02-01T06:16:02;11.17;;;3.27;;
12367;SDS011;6248;49.812;6.620;2023-02-01T06:18:30;12.90;;;3.63;;
12367;SDS011;6248;49.812;6.620;2023-02-01T06:20:58;9.33;;;3.13;;
12367;SDS011;6248;49.812;6.620;2023-02-01T06:23:26;9.00;;;2.80;;
12367;SDS011;6248;49.812;6.620;2023-02-01T06:25:57;12.17;;;3.40;;
12367;SDS011;6248;49.812;6.620;2023-02-01T06:28:25;11.07;;;3.00;;
12367;SDS011;6248;49.812;6.620;2023-02-01T06:30:53;10.60;;;2.70;;
12367;SDS011;6248;49.812;6.620;2023-02-01T06:33:21;10.13;;;2.60;;
12367;SDS011;6248;49.812;6.620;2023-02-01T06:35:49;11.80;;;2.87;;
12367;SDS011;6248;49.812;6.620;2023-02-01T06:38:23;12.07;;;2.97;;
12367;SDS011;6248;49.812;6.620;2023-02-01T06:40:54;12.10;;;3.20;;
12367;SDS011;6248;49.812;6.620;2023-02-01T06:43:21;12.93;;;3.43;;
12367;SDS011;6248;49.812;6.620;2023-02-01T06:45:49;12.63;;;3.23;;
12367;SDS011;6248;49.812;6.620;2023-02-01T06:48:16;9.93;;;2.87;;
12367;SDS011;6248;49.812;6.620;2023-02-01T06:50:45;7.40;;;2.90;;
12367;SDS011;6248;49.812;6.620;2023-02-01T06:53:12;12.53;;;2.63;;
12367;SDS011;6248;49.812;6.620;2023-02-01T06:55:39;12.47;;;3.10;;
12367;SDS011;6248;49.812;6.620;2023-02-01T06:58:16;11.93;;;3.07;;
12367;SDS011;6248;49.812;6.620;2023-02-01T07:00:43;14.77;;;2.90;;
12367;SDS011;6248;49.812;6.620;2023-02-01T07:03:10;9.57;;;3.03;;
12367;SDS011;6248;49.812;6.620;2023-02-01T07:05:37;14.17;;;3.00;;
12367;SDS011;6248;49.812;6.620;2023-02-01T07:08:06;12.03;;;3.20;;
12367;SDS011;6248;49.812;6.620;2023-02-01T07:10:33;13.37;;;2.93;;
12367;SDS011;6248;49.812;6.620;2023-02-01T07:13:00;12.90;;;3.00;;
12367;SDS011;6248;49.812;6.620;2023-02-01T07:15:28;13.20;;;3.30;;
12367;SDS011;6248;49.812;6.620;2023-02-01T07:17:55;10.03;;;3.23;;
12367;SDS011;6248;49.812;6.620;2023-02-01T07:20:22;11.43;;;3.13;;
12367;SDS011;6248;49.812;6.620;2023-02-01T07:22:54;10.90;;;2.63;;
12367;SDS011;6248;49.812;6.620;2023-02-01T07:25:22;8.77;;;2.53;;
12367;SDS011;6248;49.812;6.620;2023-02-01T07:27:50;13.53;;;3.60;;
12367;SDS011;6248;49.812;6.620;2023-02-01T07:30:17;9.00;;;2.83;;
12367;SDS011;6248;49.812;6.620;2023-02-01T07:32:44;13.90;;;2.97;;
12367;SDS011;6248;49.812;6.620;2023-02-01T07:35:12;11.70;;;3.03;;
12367;SDS011;6248;49.812;6.620;2023-02-01T07:37:39;10.30;;;2.90;;
12367;SDS011;6248;49.812;6.620;2023-02-01T07:40:07;15.97;;;3.40;;
12367;SDS011;6248;49.812;6.620;2023-02-01T07:42:36;9.33;;;2.90;;
12367;SDS011;6248;49.812;6.620;2023-02-01T07:45:03;12.43;;;3.43;;
12367;SDS011;6248;49.812;6.620;2023-02-01T07:47:31;15.33;;;3.37;;
12367;SDS011;6248;49.812;6.620;2023-02-01T07:49:58;11.27;;;3.20;;
12367;SDS011;6248;49.812;6.620;2023-02-01T07:52:27;10.37;;;3.23;;
12367;SDS011;6248;49.812;6.620;2023-02-01T07:54:54;11.90;;;3.07;;
12367;SDS011;6248;49.812;6.620;2023-02-01T07:57:21;14.40;;;3.23;;
12367;SDS011;6248;49.812;6.620;2023-02-01T07:59:50;15.87;;;3.90;;
12367;SDS011;6248;49.812;6.620;2023-02-01T08:02:35;15.80;;;3.60;;
12367;SDS011;6248;49.812;6.620;2023-02-01T08:05:02;13.53;;;3.90;;
12367;SDS011;6248;49.812;6.620;2023-02-01T08:07:30;13.37;;;3.43;;
12367;SDS011;6248;49.812;6.620;2023-02-01T08:09:57;14.37;;;3.40;;
12367;SDS011;6248;49.812;6.620;2023-02-01T08:12:25;15.63;;;3.70;;
12367;SDS011;6248;49.812;6.620;2023-02-01T08:14:54;10.60;;;3.77;;
12367;SDS011;6248;49.812;6.620;2023-02-01T08:17:21;15.13;;;3.87;;
12367;SDS011;6248;49.812;6.620;2023-02-01T08:19:48;14.80;;;3.87;;
12367;SDS011;6248;49.812;6.620;2023-02-01T08:22:15;12.90;;;3.30;;
12367;SDS011;6248;49.812;6.620;2023-02-01T08:24:43;12.97;;;3.13;;
12367;SDS011;6248;49.812;6.620;2023-02-01T08:27:10;14.40;;;3.00;;
12367;SDS011;6248;49.812;6.620;2023-02-01T08:29:37;13.37;;;3.57;;
12367;SDS011;6248;49.812;6.620;2023-02-01T08:32:06;11.43;;;3.10;;
12367;SDS011;6248;49.812;6.620;2023-02-01T08:34:33;18.27;;;3.90;;
12367;SDS011;6248;49.812;6.620;2023-02-01T08:37:00;13.50;;;3.20;;
12367;SDS011;6248;49.812;6.620;2023-02-01T08:39:28;12.20;;;4.90;;
12367;SDS011;6248;49.812;6.620;2023-02-01T08:41:55;14.73;;;3.50;;
12367;SDS011;6248;49.812;6.620;2023-02-01T08:44:39;12.77;;;3.40;;
12367;SDS011;6248;49.812;6.620;2023-02-01T08:47:09;12.90;;;3.07;;
12367;SDS011;6248;49.812;6.620;2023-02-01T08:49:36;12.80;;;3.07;;
12367;SDS011;6248;49.812;6.620;2023-02-01T08:52:03;11.33;;;3.10;;
12367;SDS011;6248;49.812;6.620;2023-02-01T08:54:30;12.87;;;3.37;;
12367;SDS011;6248;49.812;6.620;2023-02-01T08:56:58;12.53;;;3.23;;
12367;SDS011;6248;49.812;6.620;2023-02-01T08:59:25;12.10;;;2.93;;
12367;SDS011;6248;49.812;6.620;2023-02-01T09:01:52;14.50;;;3.50;;
12367;SDS011;6248;49.812;6.620;2023-02-01T09:04:22;15.10;;;3.57;;
12367;SDS011;6248;49.812;6.620;2023-02-01T09:06:49;10.13;;;3.17;;
12367;SDS011;6248;49.812;6.620;2023-02-01T09:09:16;11.43;;;2.97;;
12367;SDS011;6248;49.812;6.620;2023-02-01T09:11:43;12.63;;;3.37;;
12367;SDS011;6248;49.812;6.620;2023-02-01T09:14:10;15.80;;;3.50;;
12367;SDS011;6248;49.812;6.620;2023-02-01T09:16:38;14.23;;;3.23;;
12367;SDS011;6248;49.812;6.620;2023-02-01T09:19:05;14.67;;;2.97;;
12367;SDS011;6248;49.812;6.620;2023-02-01T09:21:33;13.30;;;3.23;;
12367;SDS011;6248;49.812;6.620;2023-02-01T09:24:01;13.67;;;2.97;;
12367;SDS011;6248;49.812;6.620;2023-02-01T09:26:29;12.73;;;3.27;;
12367;SDS011;6248;49.812;6.620;2023-02-01T09:28:56;11.43;;;3.27;;
12367;SDS011;6248;49.812;6.620;2023-02-01T09:31:23;13.27;;;3.47;;
12367;SDS011;6248;49.812;6.620;2023-02-01T09:33:50;11.77;;;3.23;;
12367;SDS011;6248;49.812;6.620;2023-02-01T09:36:17;12.17;;;3.50;;
12367;SDS011;6248;49.812;6.620;2023-02-01T09:38:47;10.30;;;3.10;;
12367;SDS011;6248;49.812;6.620;2023-02-01T09:41:18;13.13;;;3.40;;
12367;SDS011;6248;49.812;6.620;2023-02-01T09:43:52;17.47;;;4.03;;
12367;SDS011;6248;49.812;6.620;2023-02-01T09:46:21;10.13;;;2.90;;
12367;SDS011;6248;49.812;6.620;2023-02-01T09:48:53;13.70;;;3.53;;
12367;SDS011;6248;49.812;6.620;2023-02-01T09:51:20;11.23;;;3.20;;
12367;SDS011;6248;49.812;6.620;2023-02-01T09:53:55;13.00;;;3.30;;
12367;SDS011;6248;49.812;6.620;2023-02-01T09:56:26;13.87;;;3.03;;
12367;SDS011;6248;49.812;6.620;2023-02-01T09:58:58;10.90;;;2.90;;
12367;SDS011;6248;49.812;6.620;2023-02-01T10:01:27;8.47;;;3.17;;
12367;SDS011;6248;49.812;6.620;2023-02-01T10:03:57;13.63;;;3.90;;
12367;SDS011;6248;49.812;6.620;2023-02-01T10:06:35;13.07;;;3.47;;
12367;SDS011;6248;49.812;6.620;2023-02-01T10:09:08;10.87;;;3.50;;
12367;SDS011;6248;49.812;6.620;2023-02-01T10:11:42;13.47;;;3.27;;
12367;SDS011;6248;49.812;6.620;2023-02-01T10:14:25;9.83;;;2.90;;
12367;SDS011;6248;49.812;6.620;2023-02-01T10:16:59;10.20;;;3.13;;
12367;SDS011;6248;49.812;6.620;2023-02-01T10:19:33;8.03;;;2.63;;
12367;SDS011;6248;49.812;6.620;2023-02-01T10:22:04;15.00;;;3.60;;
12367;SDS011;6248;49.812;6.620;2023-02-01T10:24:36;14.03;;;3.40;;
12367;SDS011;6248;49.812;6.620;2023-02-01T10:27:09;12.13;;;3.47;;
12367;SDS011;6248;49.812;6.620;2023-02-01T10:29:39;13.53;;;3.30;;
12367;SDS011;6248;49.812;6.620;2023-02-01T10:32:11;11.97;;;2.97;;
12367;SDS011;6248;49.812;6.620;2023-02-01T10:34:39;11.73;;;3.10;;
12367;SDS011;6248;49.812;6.620;2023-02-01T10:37:09;12.33;;;3.27;;
12367;SDS011;6248;49.812;6.620;2023-02-01T10:39:45;9.07;;;2.60;;
12367;SDS011;6248;49.812;6.620;2023-02-01T10:42:13;13.23;;;3.63;;
12367;SDS011;6248;49.812;6.620;2023-02-01T10:44:42;14.43;;;3.30;;
12367;SDS011;6248;49.812;6.620;2023-02-01T10:47:10;13.17;;;3.20;;
12367;SDS011;6248;49.812;6.620;2023-02-01T10:49:38;13.37;;;3.50;;
12367;SDS011;6248;49.812;6.620;2023-02-01T10:52:06;13.27;;;3.43;;
12367;SDS011;6248;49.812;6.620;2023-02-01T10:54:38;11.20;;;3.30;;
12367;SDS011;6248;49.812;6.620;2023-02-01T10:57:08;11.27;;;3.50;;
12367;SDS011;6248;49.812;6.620;2023-02-01T10:59:36;12.23;;;3.20;;
12367;SDS011;6248;49.812;6.620;2023-02-01T11:02:05;10.57;;;2.73;;
12367;SDS011;6248;49.812;6.620;2023-02-01T11:04:40;12.80;;;3.67;;
12367;SDS011;6248;49.812;6.620;2023-02-01T11:07:08;9.80;;;3.07;;
12367;SDS011;6248;49.812;6.620;2023-02-01T11:09:40;10.53;;;3.30;;
12367;SDS011;6248;49.812;6.620;2023-02-01T11:12:22;11.93;;;3.10;;
12367;SDS011;6248;49.812;6.620;2023-02-01T11:14:55;12.70;;;3.17;;
12367;SDS011;6248;49.812;6.620;2023-02-01T11:17:26;9.37;;;2.53;;
12367;SDS011;6248;49.812;6.620;2023-02-01T11:19:58;11.23;;;2.63;;
12367;SDS011;6248;49.812;6.620;2023-02-01T11:22:27;12.37;;;2.80;;
12367;SDS011;6248;49.812;6.620;2023-02-01T11:24:54;14.10;;;3.60;;
12367;SDS011;6248;49.812;6.620;2023-02-01T11:27:24;9.93;;;2.70;;
12367;SDS011;6248;49.812;6.620;2023-02-01T11:29:53;8.97;;;2.50;;
12367;SDS011;6248;49.812;6.620;2023-02-01T11:32:23;10.13;;;3.03;;
12367;SDS011;6248;49.812;6.620;2023-02-01T11:34:52;12.93;;;3.07;;
12367;SDS011;6248;49.812;6.620;2023-02-01T11:37:21;9.93;;;2.93;;
12367;SDS011;6248;49.812;6.620;2023-02-01T11:39:54;9.40;;;2.60;;
12367;SDS011;6248;49.812;6.620;2023-02-01T11:42:24;14.80;;;3.07;;
12367;SDS011;6248;49.812;6.620;2023-02-01T11:45:13;9.23;;;2.30;;
12367;SDS011;6248;49.812;6.620;2023-02-01T11:47:43;10.33;;;2.87;;
12367;SDS011;6248;49.812;6.620;2023-02-01T11:50:12;8.57;;;2.43;;
12367;SDS011;6248;49.812;6.620;2023-02-01T11:52:43;12.03;;;2.77;;
12367;SDS011;6248;49.812;6.620;2023-02-01T11:55:17;9.23;;;3.20;;
12367;SDS011;6248;49.812;6.620;2023-02-01T11:57:53;11.63;;;2.97;;
12367;SDS011;6248;49.812;6.620;2023-02-01T12:00:31;13.67;;;3.50;;
12367;SDS011;6248;49.812;6.620;2023-02-01T12:03:18;12.83;;;3.10;;
12367;SDS011;6248;49.812;6.620;2023-02-01T12:05:53;9.30;;;2.60;;
12367;SDS011;6248;49.812;6.620;2023-02-01T12:08:28;8.97;;;2.83;;
12367;SDS011;6248;49.812;6.620;2023-02-01T12:11:02;8.67;;;2.27;;
12367;SDS011;6248;49.812;6.620;2023-02-01T12:13:37;11.10;;;2.40;;
12367;SDS011;6248;49.812;6.620;2023-02-01T12:16:08;11.73;;;2.93;;
12367;SDS011;6248;49.812;6.620;2023-02-01T12:21:43;8.77;;;2.57;;
12367;SDS011;6248;49.812;6.620;2023-02-01T12:24:20;12.47;;;2.90;;
12367;SDS011;6248;49.812;6.620;2023-02-01T12:26:53;9.03;;;2.47;;
12367;SDS011;6248;49.812;6.620;2023-02-01T12:32:14;12.40;;;3.07;;
12367;SDS011;6248;49.812;6.620;2023-02-01T12:37:34;10.10;;;2.77;;
12367;SDS011;6248;49.812;6.620;2023-02-01T12:40:12;11.80;;;2.53;;
12367;SDS011;6248;49.812;6.620;2023-02-01T12:42:45;11.83;;;3.07;;
12367;SDS011;6248;49.812;6.620;2023-02-01T12:45:16;12.27;;;2.40;;
12367;SDS011;6248;49.812;6.620;2023-02-01T12:47:51;11.70;;;2.73;;
12367;SDS011;6248;49.812;6.620;2023-02-01T12:50:20;7.30;;;2.73;;
12367;SDS011;6248;49.812;6.620;2023-02-01T12:52:49;9.37;;;2.50;;
12367;SDS011;6248;49.812;6.620;2023-02-01T12:55:18;6.10;;;2.10;;
12367;SDS011;6248;49.812;6.620;2023-02-01T12:57:48;9.57;;;2.60;;
12367;SDS011;6248;49.812;6.620;2023-02-01T13:00:18;12.87;;;3.07;;
12367;SDS011;6248;49.812;6.620;2023-02-01T13:02:51;7.93;;;2.47;;
12367;SDS011;6248;49.812;6.620;2023-02-01T13:05:20;9.40;;;2.40;;
12367;SDS011;6248;49.812;6.620;2023-02-01T13:07:50;9.30;;;2.93;;
12367;SDS011;6248;49.812;6.620;2023-02-01T13:10:21;7.97;;;2.47;;
12367;SDS011;6248;49.812;6.620;2023-02-01T13:12:50;6.00;;;1.80;;
12367;SDS011;6248;49.812;6.620;2023-02-01T13:15:20;9.50;;;2.50;;
12367;SDS011;6248;49.812;6.620;2023-02-01T13:17:48;9.93;;;2.67;;
12367;SDS011;6248;49.812;6.620;2023-02-01T13:20:19;8.50;;;2.53;;
12367;SDS011;6248;49.812;6.620;2023-02-01T13:22:49;12.77;;;2.27;;
12367;SDS011;6248;49.812;6.620;2023-02-01T13:25:19;9.00;;;2.60;;
12367;SDS011;6248;49.812;6.620;2023-02-01T13:27:52;8.63;;;2.17;;
12367;SDS011;6248;49.812;6.620;2023-02-01T13:30:20;11.17;;;2.43;;
12367;SDS011;6248;49.812;6.620;2023-02-01T13:33:03;9.93;;;2.40;;
12367;SDS011;6248;49.812;6.620;2023-02-01T13:41:19;9.03;;;2.20;;
12367;SDS011;6248;49.812;6.620;2023-02-01T13:43:52;9.10;;;2.20;;
12367;SDS011;6248;49.812;6.620;2023-02-01T13:46:20;7.97;;;2.23;;
12367;SDS011;6248;49.812;6.620;2023-02-01T13:48:48;9.00;;;2.60;;
12367;SDS011;6248;49.812;6.620;2023-02-01T13:51:16;7.73;;;2.60;;
12367;SDS011;6248;49.812;6.620;2023-02-01T13:53:46;8.93;;;2.60;;
12367;SDS011;6248;49.812;6.620;2023-02-01T13:56:16;8.23;;;2.20;;
12367;SDS011;6248;49.812;6.620;2023-02-01T13:58:44;8.17;;;2.27;;
12367;SDS011;6248;49.812;6.620;2023-02-01T14:06:51;9.77;;;2.50;;
12367;SDS011;6248;49.812;6.620;2023-02-01T14:09:30;9.67;;;2.17;;
12367;SDS011;6248;49.812;6.620;2023-02-01T14:12:04;10.03;;;2.90;;
12367;SDS011;6248;49.812;6.620;2023-02-01T14:14:48;8.30;;;3.27;;
12367;SDS011;6248;49.812;6.620;2023-02-01T14:22:49;10.80;;;2.07;;
12367;SDS011;6248;49.812;6.620;2023-02-01T14:25:16;8.67;;;2.10;;
12367;SDS011;6248;49.812;6.620;2023-02-01T14:27:46;9.50;;;2.50;;
12367;SDS011;6248;49.812;6.620;2023-02-01T14:30:14;9.53;;;2.43;;
12367;SDS011;6248;49.812;6.620;2023-02-01T14:32:42;10.57;;;2.20;;
12367;SDS011;6248;49.812;6.620;2023-02-01T14:35:16;8.67;;;2.57;;
12367;SDS011;6248;49.812;6.620;2023-02-01T14:37:44;6.80;;;2.13;;
12367;SDS011;6248;49.812;6.620;2023-02-01T14:40:15;8.03;;;2.27;;
12367;SDS011;6248;49.812;6.620;2023-02-01T14:42:44;12.73;;;2.27;;
12367;SDS011;6248;49.812;6.620;2023-02-01T14:50:41;7.33;;;2.47;;
12367;SDS011;6248;49.812;6.620;2023-02-01T14:53:14;10.43;;;3.90;;
12367;SDS011;6248;49.812;6.620;2023-02-01T14:55:44;8.10;;;2.53;;
12367;SDS011;6248;49.812;6.620;2023-02-01T14:58:14;13.33;;;2.80;;
12367;SDS011;6248;49.812;6.620;2023-02-01T15:00:46;10.80;;;2.53;;
12367;SDS011;6248;49.812;6.620;2023-02-01T15:03:16;8.23;;;2.37;;
12367;SDS011;6248;49.812;6.620;2023-02-01T15:05:50;7.90;;;2.50;;
12367;SDS011;6248;49.812;6.620;2023-02-01T15:08:22;10.87;;;3.00;;
12367;SDS011;6248;49.812;6.620;2023-02-01T15:10:51;9.60;;;3.77;;
12367;SDS011;6248;49.812;6.620;2023-02-01T15:13:20;9.83;;;3.00;;
12367;SDS011;6248;49.812;6.620;2023-02-01T15:16:03;8.80;;;2.50;;
12367;SDS011;6248;49.812;6.620;2023-02-01T15:18:31;9.27;;;2.57;;
12367;SDS011;6248;49.812;6.620;2023-02-01T15:21:00;8.20;;;2.27;;
12367;SDS011;6248;49.812;6.620;2023-02-01T15:23:27;11.27;;;2.50;;
12367;SDS011;6248;49.812;6.620;2023-02-01T15:25:55;6.77;;;2.27;;
12367;SDS011;6248;49.812;6.620;2023-02-01T15:28:22;6.90;;;2.40;;
12367;SDS011;6248;49.812;6.620;2023-02-01T15:30:54;7.37;;;2.43;;
12367;SDS011;6248;49.812;6.620;2023-02-01T15:33:22;7.53;;;2.20;;
12367;SDS011;6248;49.812;6.620;2023-02-01T15:35:50;8.93;;;2.20;;
12367;SDS011;6248;49.812;6.620;2023-02-01T15:38:28;9.43;;;2.20;;
12367;SDS011;6248;49.812;6.620;2023-02-01T15:40:56;10.27;;;2.43;;
12367;SDS011;6248;49.812;6.620;2023-02-01T15:43:24;6.60;;;1.80;;
12367;SDS011;6248;49.812;6.620;2023-02-01T15:45:51;5.93;;;1.90;;